sensor_id;sensor_type;location;lat;lon;timestamp;P1;durP1;ratioP1;P2;durP2;ratioP2
53642;SDS011;39546;45.534;12.048;2023-04-03T00:01:55;8.77;;;6.90;;
53642;SDS011;39546;45.534;12.048;2023-04-03T00:07:57;6.82;;;5.43;;
53642;SDS011;39546;45.534;12.048;2023-04-03T00:14:15;8.32;;;6.07;;
53642;SDS011;39546;45.534;12.048;2023-04-03T00:20:17;14.20;;;9.60;;
53642;SDS011;39546;45.534;12.048;2023-04-03T00:26:19;9.85;;;6.45;;
53642;SDS011;39546;45.534;12.048;2023-04-03T00:32:22;9.20;;;6.20;;
53642;SDS011;39546;45.534;12.048;2023-04-03T00:38:24;7.68;;;4.37;;
53642;SDS011;39546;45.534;12.048;2023-04-03T00:50:36;12.85;;;5.80;;
53642;SDS011;39546;45.534;12.048;2023-04-03T00:56:40;6.82;;;5.28;;
53642;SDS011;39546;45.534;12.048;2023-04-03T01:02:43;6.50;;;4.72;;
53642;SDS011;39546;45.534;12.048;2023-04-03T01:08:47;6.55;;;4.32;;
53642;SDS011;39546;45.534;12.048;2023-04-03T01:14:52;6.37;;;4.22;;
53642;SDS011;39546;45.534;12.048;2023-04-03T01:21:06;6.18;;;4.85;;
53642;SDS011;39546;45.534;12.048;2023-04-03T01:27:13;5.40;;;3.95;;
53642;SDS011;39546;45.534;12.048;2023-04-03T01:33:15;3.85;;;3.12;;
53642;SDS011;39546;45.534;12.048;2023-04-03T01:39:20;16.95;;;7.53;;
53642;SDS011;39546;45.534;12.048;2023-04-03T01:45:23;5.10;;;3.58;;
53642;SDS011;39546;45.534;12.048;2023-04-03T01:51:25;6.75;;;4.62;;
53642;SDS011;39546;45.534;12.048;2023-04-03T01:57:27;6.68;;;3.85;;
53642;SDS011;39546;45.534;12.048;2023-04-03T02:03:29;4.18;;;2.90;;
53642;SDS011;39546;45.534;12.048;2023-04-03T02:09:32;4.20;;;2.55;;
53642;SDS011;39546;45.534;12.048;2023-04-03T02:15:37;7.12;;;3.80;;
53642;SDS011;39546;45.534;12.048;2023-04-03T02:21:39;4.65;;;2.65;;
53642;SDS011;39546;45.534;12.048;2023-04-03T02:27:41;4.55;;;3.03;;
53642;SDS011;39546;45.534;12.048;2023-04-03T02:33:43;3.80;;;3.00;;
53642;SDS011;39546;45.534;12.048;2023-04-03T02:39:46;3.60;;;2.40;;
53642;SDS011;39546;45.534;12.048;2023-04-03T02:45:48;3.90;;;2.60;;
53642;SDS011;39546;45.534;12.048;2023-04-03T02:51:50;4.97;;;2.83;;
53642;SDS011;39546;45.534;12.048;2023-04-03T02:57:52;3.55;;;2.85;;
53642;SDS011;39546;45.534;12.048;2023-04-03T03:03:54;5.28;;;3.87;;
53642;SDS011;39546;45.534;12.048;2023-04-03T03:09:56;4.43;;;2.70;;
53642;SDS011;39546;45.534;12.048;2023-04-03T03:15:58;4.12;;;2.58;;
53642;SDS011;39546;45.534;12.048;2023-04-03T03:22:00;4.78;;;3.12;;
53642;SDS011;39546;45.534;12.048;2023-04-03T03:28:03;6.80;;;3.10;;
53642;SDS011;39546;45.534;12.048;2023-04-03T03:34:05;5.28;;;3.35;;
53642;SDS011;39546;45.534;12.048;2023-04-03T03:40:07;10.32;;;4.03;;
53642;SDS011;39546;45.534;12.048;2023-04-03T03:46:12;5.35;;;2.58;;
53642;SDS011;39546;45.534;12.048;2023-04-03T03:52:14;6.80;;;4.53;;
53642;SDS011;39546;45.534;12.048;2023-04-03T03:58:16;5.05;;;3.87;;
53642;SDS011;39546;45.534;12.048;2023-04-03T04:04:18;5.07;;;3.08;;
53642;SDS011;39546;45.534;12.048;2023-04-03T04:10:21;5.00;;;2.72;;
53642;SDS011;39546;45.534;12.048;2023-04-03T04:16:23;2.12;;;1.70;;
53642;SDS011;39546;45.534;12.048;2023-04-03T04:22:26;4.37;;;2.85;;
53642;SDS011;39546;45.534;12.048;2023-04-03T04:28:28;5.65;;;3.15;;
53642;SDS011;39546;45.534;12.048;2023-04-03T04:34:31;3.58;;;2.75;;
53642;SDS011;39546;45.534;12.048;2023-04-03T04:40:34;4.60;;;2.60;;
53642;SDS011;39546;45.534;12.048;2023-04-03T04:46:36;4.35;;;3.10;;
53642;SDS011;39546;45.534;12.048;2023-04-03T04:52:39;4.55;;;2.50;;
53642;SDS011;39546;45.534;12.048;2023-04-03T04:58:42;4.80;;;2.80;;
53642;SDS011;39546;45.534;12.048;2023-04-03T05:04:44;6.70;;;3.25;;
53642;SDS011;39546;45.534;12.048;2023-04-03T05:10:47;3.70;;;2.80;;
53642;SDS011;39546;45.534;12.048;2023-04-03T05:16:50;3.50;;;2.40;;
53642;SDS011;39546;45.534;12.048;2023-04-03T05:22:55;2.40;;;2.00;;
53642;SDS011;39546;45.534;12.048;2023-04-03T05:28:57;4.95;;;2.45;;
53642;SDS011;39546;45.534;12.048;2023-04-03T05:35:00;3.53;;;2.33;;
53642;SDS011;39546;45.534;12.048;2023-04-03T05:41:02;2.37;;;1.70;;
53642;SDS011;39546;45.534;12.048;2023-04-03T05:47:04;2.92;;;1.98;;
53642;SDS011;39546;45.534;12.048;2023-04-03T05:53:09;6.10;;;1.98;;
53642;SDS011;39546;45.534;12.048;2023-04-03T05:59:28;2.95;;;1.90;;
53642;SDS011;39546;45.534;12.048;2023-04-03T06:05:31;2.03;;;1.65;;
53642;SDS011;39546;45.534;12.048;2023-04-03T06:11:33;3.10;;;2.08;;
53642;SDS011;39546;45.534;12.048;2023-04-03T06:17:36;6.15;;;3.30;;
53642;SDS011;39546;45.534;12.048;2023-04-03T06:23:39;3.03;;;2.50;;
53642;SDS011;39546;45.534;12.048;2023-04-03T06:29:41;3.00;;;2.05;;
53642;SDS011;39546;45.534;12.048;2023-04-03T06:35:44;3.55;;;1.77;;
53642;SDS011;39546;45.534;12.048;2023-04-03T06:41:46;4.72;;;2.10;;
53642;SDS011;39546;45.534;12.048;2023-04-03T06:47:50;6.18;;;2.65;;
53642;SDS011;39546;45.534;12.048;2023-04-03T06:53:52;7.62;;;3.50;;
53642;SDS011;39546;45.534;12.048;2023-04-03T06:59:56;3.28;;;2.10;;
53642;SDS011;39546;45.534;12.048;2023-04-03T07:05:58;8.98;;;3.20;;
53642;SDS011;39546;45.534;12.048;2023-04-03T07:12:00;3.25;;;2.28;;
53642;SDS011;39546;45.534;12.048;2023-04-03T07:18:02;7.18;;;3.33;;
53642;SDS011;39546;45.534;12.048;2023-04-03T07:24:05;6.10;;;2.72;;
53642;SDS011;39546;45.534;12.048;2023-04-03T07:30:08;4.97;;;3.33;;
53642;SDS011;39546;45.534;12.048;2023-04-03T07:36:11;3.47;;;2.37;;
53642;SDS011;39546;45.534;12.048;2023-04-03T07:42:17;7.57;;;2.65;;
53642;SDS011;39546;45.534;12.048;2023-04-03T07:48:20;4.53;;;2.90;;
53642;SDS011;39546;45.534;12.048;2023-04-03T07:54:24;9.23;;;3.42;;
53642;SDS011;39546;45.534;12.048;2023-04-03T08:00:27;3.70;;;2.37;;
53642;SDS011;39546;45.534;12.048;2023-04-03T08:06:30;12.02;;;3.35;;
53642;SDS011;39546;45.534;12.048;2023-04-03T08:12:36;10.68;;;2.83;;
53642;SDS011;39546;45.534;12.048;2023-04-03T08:18:38;9.18;;;3.47;;
53642;SDS011;39546;45.534;12.048;2023-04-03T08:24:41;4.60;;;2.40;;
53642;SDS011;39546;45.534;12.048;2023-04-03T08:30:44;9.30;;;2.90;;
53642;SDS011;39546;45.534;12.048;2023-04-03T08:36:47;4.07;;;2.22;;
53642;SDS011;39546;45.534;12.048;2023-04-03T08:49:10;4.22;;;2.40;;
53642;SDS011;39546;45.534;12.048;2023-04-03T08:55:40;6.80;;;2.45;;
53642;SDS011;39546;45.534;12.048;2023-04-03T09:01:45;6.87;;;2.10;;
53642;SDS011;39546;45.534;12.048;2023-04-03T09:08:07;7.18;;;3.03;;
53642;SDS011;39546;45.534;12.048;2023-04-03T09:14:33;14.38;;;3.65;;
53642;SDS011;39546;45.534;12.048;2023-04-03T09:20:44;14.90;;;3.28;;
53642;SDS011;39546;45.534;12.048;2023-04-03T09:26:56;3.78;;;1.77;;
53642;SDS011;39546;45.534;12.048;2023-04-03T09:33:01;9.77;;;2.67;;
53642;SDS011;39546;45.534;12.048;2023-04-03T09:39:04;6.40;;;2.45;;
53642;SDS011;39546;45.534;12.048;2023-04-03T09:45:21;5.62;;;2.97;;
53642;SDS011;39546;45.534;12.048;2023-04-03T09:51:29;10.10;;;2.50;;
53642;SDS011;39546;45.534;12.048;2023-04-03T09:57:32;7.37;;;2.80;;
53642;SDS011;39546;45.534;12.048;2023-04-03T10:03:35;13.27;;;2.80;;
53642;SDS011;39546;45.534;12.048;2023-04-03T10:09:38;4.62;;;2.67;;
53642;SDS011;39546;45.534;12.048;2023-04-03T10:15:44;10.07;;;3.10;;
53642;SDS011;39546;45.534;12.048;2023-04-03T10:22:00;5.30;;;2.58;;
53642;SDS011;39546;45.534;12.048;2023-04-03T10:34:50;6.25;;;2.45;;
53642;SDS011;39546;45.534;12.048;2023-04-03T10:47:40;6.75;;;2.85;;
53642;SDS011;39546;45.534;12.048;2023-04-03T10:54:00;14.25;;;2.92;;
53642;SDS011;39546;45.534;12.048;2023-04-03T11:00:16;9.75;;;2.45;;
53642;SDS011;39546;45.534;12.048;2023-04-03T11:06:22;4.80;;;2.00;;
53642;SDS011;39546;45.534;12.048;2023-04-03T11:18:39;8.95;;;3.30;;
53642;SDS011;39546;45.534;12.048;2023-04-03T11:31:29;5.30;;;2.15;;
53642;SDS011;39546;45.534;12.048;2023-04-03T11:37:52;7.00;;;1.98;;
53642;SDS011;39546;45.534;12.048;2023-04-03T11:50:03;8.30;;;2.85;;
53642;SDS011;39546;45.534;12.048;2023-04-03T11:56:27;3.00;;;1.42;;
53642;SDS011;39546;45.534;12.048;2023-04-03T12:02:36;5.37;;;2.65;;
53642;SDS011;39546;45.534;12.048;2023-04-03T12:14:41;10.10;;;2.53;;
53642;SDS011;39546;45.534;12.048;2023-04-03T12:33:38;6.22;;;1.90;;
53642;SDS011;39546;45.534;12.048;2023-04-03T12:46:15;5.45;;;2.58;;
53642;SDS011;39546;45.534;12.048;2023-04-03T12:52:50;8.25;;;2.12;;
53642;SDS011;39546;45.534;12.048;2023-04-03T12:59:12;8.43;;;3.05;;
53642;SDS011;39546;45.534;12.048;2023-04-03T13:05:25;7.05;;;2.28;;
53642;SDS011;39546;45.534;12.048;2023-04-03T13:11:30;9.07;;;2.20;;
53642;SDS011;39546;45.534;12.048;2023-04-03T13:17:41;5.35;;;2.17;;
53642;SDS011;39546;45.534;12.048;2023-04-03T13:23:45;3.50;;;2.30;;
53642;SDS011;39546;45.534;12.048;2023-04-03T13:29:52;6.82;;;2.58;;
53642;SDS011;39546;45.534;12.048;2023-04-03T13:36:08;6.97;;;1.62;;
53642;SDS011;39546;45.534;12.048;2023-04-03T13:42:25;8.73;;;2.58;;
53642;SDS011;39546;45.534;12.048;2023-04-03T13:48:46;4.70;;;1.95;;
53642;SDS011;39546;45.534;12.048;2023-04-03T13:54:55;8.50;;;1.95;;
53642;SDS011;39546;45.534;12.048;2023-04-03T14:01:34;4.93;;;2.22;;
53642;SDS011;39546;45.534;12.048;2023-04-03T14:07:39;7.78;;;1.52;;
53642;SDS011;39546;45.534;12.048;2023-04-03T14:13:41;6.72;;;1.87;;
53642;SDS011;39546;45.534;12.048;2023-04-03T14:19:44;4.85;;;2.08;;
53642;SDS011;39546;45.534;12.048;2023-04-03T14:25:47;1.60;;;1.20;;
53642;SDS011;39546;45.534;12.048;2023-04-03T14:31:49;12.13;;;2.35;;
53642;SDS011;39546;45.534;12.048;2023-04-03T14:37:52;6.97;;;1.75;;
53642;SDS011;39546;45.534;12.048;2023-04-03T14:43:55;8.23;;;2.28;;
53642;SDS011;39546;45.534;12.048;2023-04-03T14:50:00;7.85;;;2.03;;
53642;SDS011;39546;45.534;12.048;2023-04-03T14:56:14;4.25;;;1.60;;
53642;SDS011;39546;45.534;12.048;2023-04-03T15:08:28;4.15;;;1.35;;
53642;SDS011;39546;45.534;12.048;2023-04-03T15:14:30;3.05;;;1.85;;
53642;SDS011;39546;45.534;12.048;2023-04-03T15:20:32;5.03;;;1.85;;
53642;SDS011;39546;45.534;12.048;2023-04-03T15:26:35;6.03;;;1.92;;
53642;SDS011;39546;45.534;12.048;2023-04-03T15:32:37;4.97;;;2.30;;
53642;SDS011;39546;45.534;12.048;2023-04-03T15:38:39;3.97;;;2.00;;
53642;SDS011;39546;45.534;12.048;2023-04-03T15:44:41;2.65;;;1.60;;
53642;SDS011;39546;45.534;12.048;2023-04-03T15:50:43;3.83;;;2.03;;
53642;SDS011;39546;45.534;12.048;2023-04-03T15:56:46;6.30;;;2.22;;
53642;SDS011;39546;45.534;12.048;2023-04-03T16:02:49;3.42;;;1.80;;
53642;SDS011;39546;45.534;12.048;2023-04-03T16:08:54;3.65;;;1.10;;
53642;SDS011;39546;45.534;12.048;2023-04-03T16:14:59;2.85;;;1.50;;
53642;SDS011;39546;45.534;12.048;2023-04-03T16:21:01;4.80;;;2.45;;
53642;SDS011;39546;45.534;12.048;2023-04-03T16:27:04;2.85;;;1.80;;
53642;SDS011;39546;45.534;12.048;2023-04-03T16:33:06;5.78;;;1.55;;
53642;SDS011;39546;45.534;12.048;2023-04-03T16:39:10;4.30;;;1.42;;
53642;SDS011;39546;45.534;12.048;2023-04-03T16:45:12;6.32;;;1.40;;
53642;SDS011;39546;45.534;12.048;2023-04-03T16:51:14;6.60;;;2.25;;
53642;SDS011;39546;45.534;12.048;2023-04-03T16:57:16;5.15;;;1.85;;
53642;SDS011;39546;45.534;12.048;2023-04-03T17:03:19;2.97;;;1.80;;
53642;SDS011;39546;45.534;12.048;2023-04-03T17:09:21;6.15;;;2.22;;
53642;SDS011;39546;45.534;12.048;2023-04-03T17:15:24;3.30;;;1.80;;
53642;SDS011;39546;45.534;12.048;2023-04-03T17:21:26;2.10;;;1.55;;
53642;SDS011;39546;45.534;12.048;2023-04-03T17:27:29;3.87;;;2.05;;
53642;SDS011;39546;45.534;12.048;2023-04-03T17:33:31;4.97;;;2.10;;
53642;SDS011;39546;45.534;12.048;2023-04-03T17:39:35;4.40;;;2.67;;
53642;SDS011;39546;45.534;12.048;2023-04-03T17:45:37;3.17;;;1.95;;
53642;SDS011;39546;45.534;12.048;2023-04-03T17:51:40;4.37;;;2.25;;
53642;SDS011;39546;45.534;12.048;2023-04-03T17:57:42;4.22;;;2.50;;
53642;SDS011;39546;45.534;12.048;2023-04-03T18:03:45;4.30;;;2.30;;
53642;SDS011;39546;45.534;12.048;2023-04-03T18:09:48;5.22;;;2.35;;
53642;SDS011;39546;45.534;12.048;2023-04-03T18:15:53;3.37;;;2.45;;
53642;SDS011;39546;45.534;12.048;2023-04-03T18:21:56;4.43;;;3.00;;
53642;SDS011;39546;45.534;12.048;2023-04-03T18:28:08;4.62;;;2.35;;
53642;SDS011;39546;45.534;12.048;2023-04-03T18:34:10;4.62;;;2.50;;
53642;SDS011;39546;45.534;12.048;2023-04-03T18:40:13;7.97;;;3.25;;
53642;SDS011;39546;45.534;12.048;2023-04-03T18:46:15;3.55;;;2.10;;
53642;SDS011;39546;45.534;12.048;2023-04-03T18:52:17;3.15;;;1.92;;
53642;SDS011;39546;45.534;12.048;2023-04-03T18:58:21;4.07;;;3.12;;
53642;SDS011;39546;45.534;12.048;2023-04-03T19:04:23;5.78;;;2.40;;
53642;SDS011;39546;45.534;12.048;2023-04-03T19:10:26;3.15;;;2.37;;
53642;SDS011;39546;45.534;12.048;2023-04-03T19:16:29;2.85;;;1.65;;
53642;SDS011;39546;45.534;12.048;2023-04-03T19:22:31;7.93;;;2.60;;
53642;SDS011;39546;45.534;12.048;2023-04-03T19:28:33;4.18;;;2.05;;
53642;SDS011;39546;45.534;12.048;2023-04-03T19:34:37;5.18;;;3.25;;
53642;SDS011;39546;45.534;12.048;2023-04-03T19:40:39;3.47;;;2.45;;
53642;SDS011;39546;45.534;12.048;2023-04-03T19:46:44;3.20;;;2.45;;
53642;SDS011;39546;45.534;12.048;2023-04-03T19:52:46;5.65;;;2.58;;
53642;SDS011;39546;45.534;12.048;2023-04-03T19:58:48;5.82;;;2.33;;
53642;SDS011;39546;45.534;12.048;2023-04-03T20:04:57;5.93;;;2.83;;
53642;SDS011;39546;45.534;12.048;2023-04-03T20:10:59;4.55;;;2.20;;
53642;SDS011;39546;45.534;12.048;2023-04-03T20:17:01;4.78;;;2.85;;
53642;SDS011;39546;45.534;12.048;2023-04-03T20:23:04;8.23;;;3.62;;
53642;SDS011;39546;45.534;12.048;2023-04-03T20:29:08;4.68;;;2.78;;
53642;SDS011;39546;45.534;12.048;2023-04-03T20:35:10;6.15;;;2.03;;
53642;SDS011;39546;45.534;12.048;2023-04-03T20:41:13;3.75;;;1.90;;
53642;SDS011;39546;45.534;12.048;2023-04-03T20:47:16;2.22;;;1.67;;
53642;SDS011;39546;45.534;12.048;2023-04-03T20:53:18;2.33;;;1.60;;
53642;SDS011;39546;45.534;12.048;2023-04-03T20:59:21;3.97;;;2.08;;
53642;SDS011;39546;45.534;12.048;2023-04-03T21:05:24;2.65;;;1.42;;
53642;SDS011;39546;45.534;12.048;2023-04-03T21:24:10;3.22;;;1.50;;
53642;SDS011;39546;45.534;12.048;2023-04-03T21:30:13;5.60;;;2.25;;
53642;SDS011;39546;45.534;12.048;2023-04-03T21:36:15;2.28;;;1.75;;
53642;SDS011;39546;45.534;12.048;2023-04-03T21:42:18;1.48;;;1.37;;
53642;SDS011;39546;45.534;12.048;2023-04-03T21:48:20;4.50;;;2.70;;
53642;SDS011;39546;45.534;12.048;2023-04-03T21:54:23;4.65;;;2.22;;
53642;SDS011;39546;45.534;12.048;2023-04-03T22:00:25;5.03;;;2.67;;
53642;SDS011;39546;45.534;12.048;2023-04-03T22:06:28;5.40;;;1.77;;
53642;SDS011;39546;45.534;12.048;2023-04-03T22:12:30;2.12;;;1.70;;
53642;SDS011;39546;45.534;12.048;2023-04-03T22:18:33;1.83;;;1.52;;
53642;SDS011;39546;45.534;12.048;2023-04-03T22:24:38;3.30;;;1.90;;
53642;SDS011;39546;45.534;12.048;2023-04-03T22:30:40;2.60;;;1.70;;
53642;SDS011;39546;45.534;12.048;2023-04-03T22:36:42;2.05;;;1.48;;
53642;SDS011;39546;45.534;12.048;2023-04-03T22:42:47;4.22;;;2.47;;
53642;SDS011;39546;45.534;12.048;2023-04-03T22:48:49;5.37;;;1.95;;
53642;SDS011;39546;45.534;12.048;2023-04-03T22:54:52;2.30;;;1.70;;
53642;SDS011;39546;45.534;12.048;2023-04-03T23:00:54;4.03;;;1.60;;
53642;SDS011;39546;45.534;12.048;2023-04-03T23:07:04;2.58;;;1.60;;
53642;SDS011;39546;45.534;12.048;2023-04-03T23:13:06;1.40;;;1.30;;
53642;SDS011;39546;45.534;12.048;2023-04-03T23:19:08;3.75;;;1.77;;
53642;SDS011;39546;45.534;12.048;2023-04-03T23:25:10;3.78;;;1.70;;
53642;SDS011;39546;45.534;12.048;2023-04-03T23:31:12;6.78;;;2.40;;
53642;SDS011;39546;45.534;12.048;2023-04-03T23:37:14;2.28;;;1.48;;
53642;SDS011;39546;45.534;12.048;2023-04-03T23:43:16;4.32;;;1.50;;
53642;SDS011;39546;45.534;12.048;2023-04-03T23:49:18;2.50;;;1.73;;
53642;SDS011;39546;45.534;12.048;2023-04-03T23:55:20;3.25;;;1.48;;
